LFLC 250900Z AUTO 20008KT 170V230 CAVOK 27/12 Q1018 NOSIG

ElémentsDécodage
LFLC Station météo située sur l'aérodrome de CLERMONT-FERRAND Auvergne
250900Z émis le 25 du mois à 09h00 UTC
AUTO Bulletin édité par un automate
20008KT vent du 200°, 08 noeuds
170V230 vent de direction variable entre 170° et 230°
CAVOK Ceiling And Visibility OK
- Visibilité de 10 Km ou plus
- Pas de nuage au-dessous de 1500m ou au-dessous de l'altitude minimale du secteur la plus élevée (si>1500m) et absence de CB
- pas de temps présent significatif
27/12 température 27°C, point de rosée 12°C
 soit une humidité relative de 39%
Q1018 la pression au niveau de la mer (QNH) est de 1018 hPa
NOSIG Pas de changement significatif prévu au cours des deux heures suivant l'heure de l'observation